Terminal Aerodrome Forecast
Issued by NWS Raleigh/Durham, NC

Home | Current Version | Previous Version | Text Only | Print | Product List | Glossary On
Versions: 1 2 3 4 5 6 7 8 9 10 11 12 13 14 15 16 17 18 19 20 21 22 23 24 25
000
FTUS42 KRAH 242340
TAFRDU
TAF
KRDU 242340Z 2500/2524 06005KT P6SM BKN250
     FM251000 18008G15KT P6SM SCT015 BKN035
      TEMPO 2511/2515 5SM -SHRA BKN012 OVC025
     FM251600 19013G20KT P6SM BKN025
     FM251800 22014G23KT P6SM SCT025 BKN035 PROB30 2520/2524 2SM
      TSRA BKN025CB=

USA.gov is the U.S. government's official web portal to all federal, state and local government web resources and services.